Time;durP1;ratioP1;P1;durP2;ratioP2;P2;SDS_P1;SDS_P2;PMS_P1;PMS_P2;Temp;Humidity;BMP_temperature;BMP_pressure;BME280_temperature;BME280_humidity;BME280_pressure;Samples;Min_cycle;Max_cycle;Signal;HPM_P1;HPM_P2
2023/07/17 00:00:11;;;;;;;6.07;2.87;;;18.50;94.40;;;;;;5062894;28;20646;-77
2023/07/17 00:02:37;;;;;;;2.40;2.20;;;18.60;94.30;;;;;;5064623;28;20706;-77
2023/07/17 00:05:06;;;;;;;4.40;2.57;;;18.60;94.40;;;;;;5061943;28;20631;-77
2023/07/17 00:07:33;;;;;;;2.53;1.90;;;18.80;94.40;;;;;;5052285;28;20752;-78
2023/07/17 00:10:00;;;;;;;3.63;2.17;;;18.80;93.10;;;;;;5061105;28;20665;-78
2023/07/17 00:12:27;;;;;;;3.30;2.50;;;18.80;92.40;;;;;;5060736;28;20669;-77
2023/07/17 00:14:54;;;;;;;2.00;1.83;;;18.80;93.10;;;;;;5060875;28;20633;-78
2023/07/17 00:17:21;;;;;;;2.70;2.50;;;18.70;93.20;;;;;;5061987;28;20773;-78
2023/07/17 00:19:53;;;;;;;2.83;2.30;;;18.70;93.60;;;;;;5062169;28;20626;-78
2023/07/17 00:22:22;;;;;;;2.20;1.97;;;18.60;92.90;;;;;;5067015;28;20681;-77
2023/07/17 00:24:49;;;;;;;2.40;1.93;;;18.60;94.10;;;;;;5058437;28;20632;-78
2023/07/17 00:27:16;;;;;;;3.70;2.50;;;18.60;93.20;;;;;;5060306;28;20678;-78
2023/07/17 00:29:44;;;;;;;5.03;1.83;;;18.50;93.10;;;;;;5064694;28;21206;-78
2023/07/17 00:32:11;;;;;;;2.87;1.90;;;18.50;93.20;;;;;;5065123;28;20663;-78
2023/07/17 00:34:38;;;;;;;2.30;1.90;;;18.60;94.00;;;;;;5056259;28;20631;-77
2023/07/17 00:37:05;;;;;;;3.13;2.30;;;18.60;93.40;;;;;;5064148;28;20646;-77
2023/07/17 00:39:34;;;;;;;2.27;2.00;;;18.60;93.50;;;;;;5059165;28;20754;-77
2023/07/17 00:42:01;;;;;;;2.43;2.00;;;18.70;93.40;;;;;;5063342;28;20660;-78
2023/07/17 00:44:28;;;;;;;2.40;2.20;;;18.60;93.30;;;;;;5067081;28;21006;-77
2023/07/17 00:46:56;;;;;;;2.87;2.40;;;18.60;93.60;;;;;;5063890;28;21003;-78
2023/07/17 00:49:25;;;;;;;2.47;2.27;;;18.60;93.80;;;;;;5059355;28;20653;-78
2023/07/17 00:51:53;;;;;;;2.60;1.80;;;18.60;94.10;;;;;;5063054;28;20655;-77
2023/07/17 00:54:20;;;;;;;3.37;2.07;;;18.60;93.70;;;;;;5062028;28;20975;-78
2023/07/17 00:56:48;;;;;;;5.23;2.63;;;18.70;92.40;;;;;;5063041;28;21221;-78
2023/07/17 00:59:16;;;;;;;3.60;1.70;;;18.70;92.30;;;;;;5065213;28;20625;-78
2023/07/17 01:01:43;;;;;;;3.43;2.13;;;18.90;92.00;;;;;;5059323;28;20991;-77
2023/07/17 01:04:10;;;;;;;2.87;1.87;;;18.90;91.40;;;;;;5059909;28;20635;-78
2023/07/17 01:06:38;;;;;;;2.40;1.90;;;19.00;91.90;;;;;;5067052;28;20645;-77
2023/07/17 01:09:06;;;;;;;2.23;1.97;;;18.90;91.40;;;;;;5066047;28;20638;-78
2023/07/17 01:11:34;;;;;;;2.40;2.10;;;19.00;90.20;;;;;;5060261;28;20645;-77
2023/07/17 01:14:02;;;;;;;2.00;1.80;;;19.00;91.30;;;;;;5066646;28;20633;-78
2023/07/17 01:16:30;;;;;;;3.57;2.03;;;19.00;91.60;;;;;;5066411;28;20767;-78
2023/07/17 01:18:58;;;;;;;2.07;1.80;;;19.10;91.10;;;;;;5059634;28;20640;-78
2023/07/17 01:21:28;;;;;;;3.30;1.97;;;19.10;92.00;;;;;;5064652;28;20641;-77
2023/07/17 01:23:58;;;;;;;2.00;1.80;;;19.20;90.10;;;;;;5063975;28;20755;-78
2023/07/17 01:26:26;;;;;;;2.07;1.53;;;19.30;89.00;;;;;;5066823;28;20650;-78
2023/07/17 01:28:53;;;;;;;3.93;2.10;;;19.30;89.30;;;;;;5059614;28;20709;-77
2023/07/17 01:31:19;;;;;;;4.40;2.30;;;19.30;90.10;;;;;;5063237;28;20676;-77
2023/07/17 01:33:47;;;;;;;3.63;2.17;;;19.20;95.30;;;;;;5060401;28;20681;-77
2023/07/17 01:36:15;;;;;;;3.67;2.40;;;18.90;98.70;;;;;;5066848;28;20660;-77
2023/07/17 01:38:45;;;;;;;4.20;1.97;;;18.60;99.70;;;;;;5065740;28;20625;-77
2023/07/17 01:41:14;;;;;;;4.40;2.50;;;18.50;99.90;;;;;;5065888;28;21332;-77
2023/07/17 01:43:41;;;;;;;2.70;1.80;;;18.60;99.90;;;;;;5066004;28;21230;-77
2023/07/17 01:46:10;;;;;;;2.60;2.30;;;18.50;99.90;;;;;;5058037;28;21285;-77
2023/07/17 01:48:38;;;;;;;4.03;2.27;;;18.40;99.90;;;;;;5065562;28;20629;-77
2023/07/17 01:51:06;;;;;;;2.90;1.93;;;18.30;99.90;;;;;;5069480;28;20658;-77
2023/07/17 01:53:34;;;;;;;2.40;2.20;;;18.20;99.90;;;;;;5069929;28;20679;-77
2023/07/17 01:56:02;;;;;;;3.63;2.43;;;18.20;99.90;;;;;;5068271;28;20677;-77
2023/07/17 01:58:31;;;;;;;2.20;2.00;;;18.20;99.90;;;;;;5068027;28;20614;-77
2023/07/17 02:00:59;;;;;;;3.90;2.40;;;18.20;99.90;;;;;;5066025;28;20669;-77
2023/07/17 02:03:28;;;;;;;4.03;2.20;;;18.20;99.90;;;;;;5061758;28;20625;-77
2023/07/17 02:05:55;;;;;;;3.20;2.13;;;18.20;99.90;;;;;;5068954;28;20637;-77
2023/07/17 02:08:22;;;;;;;2.60;2.40;;;18.20;99.90;;;;;;5062004;28;20733;-77
2023/07/17 02:10:51;;;;;;;3.37;2.30;;;18.30;99.90;;;;;;5062186;28;20692;-76
2023/07/17 02:13:18;;;;;;;2.30;2.10;;;18.20;99.90;;;;;;5069647;28;20745;-77
2023/07/17 02:15:47;;;;;;;3.70;2.10;;;18.10;99.90;;;;;;5067819;28;21056;-77
2023/07/17 02:18:14;;;;;;;2.33;2.13;;;18.10;99.90;;;;;;5068654;28;21073;-77
2023/07/17 02:20:41;;;;;;;4.80;1.83;;;18.20;99.90;;;;;;5068952;28;20645;-77
2023/07/17 02:23:09;;;;;;;2.47;2.00;;;18.20;99.90;;;;;;5067336;28;20625;-77
2023/07/17 02:25:36;;;;;;;2.77;2.10;;;18.20;99.90;;;;;;5065571;28;20650;-77
2023/07/17 02:28:04;;;;;;;3.63;2.10;;;18.10;99.90;;;;;;5060953;28;21183;-78
2023/07/17 02:30:32;;;;;;;4.53;2.60;;;18.00;99.90;;;;;;5066321;28;20662;-77
2023/07/17 02:33:01;;;;;;;6.73;2.67;;;18.00;99.90;;;;;;5066176;28;20651;-78
2023/07/17 02:35:28;;;;;;;8.53;2.30;;;18.00;99.90;;;;;;5066153;28;20650;-77
2023/07/17 02:37:55;;;;;;;2.00;1.77;;;17.90;99.90;;;;;;5063914;28;20981;-77
2023/07/17 02:40:22;;;;;;;2.80;2.20;;;17.90;99.90;;;;;;5058358;28;20787;-77
2023/07/17 02:42:50;;;;;;;4.63;2.10;;;17.80;99.90;;;;;;5065649;28;20972;-77
2023/07/17 02:45:18;;;;;;;3.23;1.87;;;17.80;99.90;;;;;;5067263;28;20679;-78
2023/07/17 02:47:46;;;;;;;2.40;2.20;;;18.00;99.90;;;;;;5062384;28;20630;-77
2023/07/17 02:50:15;;;;;;;2.17;2.07;;;17.80;99.90;;;;;;5063803;28;21098;-77
2023/07/17 02:52:43;;;;;;;2.90;2.60;;;17.90;99.90;;;;;;5068322;28;20679;-78
2023/07/17 02:55:11;;;;;;;3.87;2.20;;;17.90;99.90;;;;;;5068705;28;20630;-78
2023/07/17 02:57:39;;;;;;;2.60;2.40;;;17.90;99.90;;;;;;5067654;28;20724;-78
2023/07/17 03:00:09;;;;;;;3.47;2.30;;;17.90;99.90;;;;;;5064787;28;20629;-78
2023/07/17 03:02:38;;;;;;;3.90;2.73;;;17.90;99.90;;;;;;5061476;28;20691;-78
2023/07/17 03:05:08;;;;;;;2.37;1.73;;;17.90;99.90;;;;;;5066813;28;20633;-78
2023/07/17 03:07:40;;;;;;;6.00;3.27;;;17.90;99.90;;;;;;5060822;28;20630;-78
2023/07/17 03:10:09;;;;;;;1.80;1.70;;;17.80;99.90;;;;;;5068429;28;20686;-78
2023/07/17 03:12:37;;;;;;;3.03;2.83;;;17.80;99.90;;;;;;5063210;28;20679;-78
2023/07/17 03:15:05;;;;;;;3.07;2.27;;;17.80;99.90;;;;;;5066052;28;21046;-78
2023/07/17 03:17:32;;;;;;;2.37;2.10;;;17.70;99.90;;;;;;5068073;28;20687;-78
2023/07/17 03:19:59;;;;;;;2.17;1.97;;;17.70;99.90;;;;;;5068150;28;21251;-78
2023/07/17 03:22:27;;;;;;;4.00;2.33;;;17.60;99.90;;;;;;5064235;28;20646;-78
2023/07/17 03:24:55;;;;;;;2.13;1.93;;;17.60;99.90;;;;;;5068262;28;20622;-78
2023/07/17 03:27:23;;;;;;;3.73;2.97;;;17.60;99.90;;;;;;5062349;28;20646;-78
2023/07/17 03:29:49;;;;;;;2.07;1.87;;;17.60;99.90;;;;;;5061199;28;20682;-78
2023/07/17 03:32:16;;;;;;;2.17;1.97;;;17.60;99.90;;;;;;5068122;28;21217;-78
2023/07/17 03:34:43;;;;;;;2.20;2.07;;;17.60;99.90;;;;;;5062008;28;21266;-78
2023/07/17 03:37:10;;;;;;;3.00;2.63;;;17.60;99.90;;;;;;5061962;28;21251;-78
2023/07/17 03:39:36;;;;;;;2.27;2.07;;;17.60;99.90;;;;;;5066891;28;21190;-78
2023/07/17 03:42:10;;;;;;;2.23;2.13;;;17.60;99.90;;;;;;5067128;28;21170;-78
2023/07/17 03:44:36;;;;;;;2.40;2.20;;;17.50;99.90;;;;;;5067162;28;20630;-78
2023/07/17 03:47:04;;;;;;;2.10;1.90;;;17.50;99.90;;;;;;5060730;28;20642;-78
2023/07/17 03:49:30;;;;;;;3.47;2.27;;;17.40;99.90;;;;;;5063455;28;20634;-78
2023/07/17 03:51:58;;;;;;;2.80;2.30;;;17.40;99.90;;;;;;5065334;28;20673;-78
2023/07/17 03:54:24;;;;;;;2.77;2.43;;;17.40;99.90;;;;;;5066811;28;20671;-78
2023/07/17 03:56:51;;;;;;;2.47;1.90;;;17.40;99.90;;;;;;5061775;28;20787;-78
2023/07/17 03:59:23;;;;;;;2.90;2.60;;;17.50;99.90;;;;;;5067239;28;20645;-78
2023/07/17 04:01:51;;;;;;;4.27;2.80;;;17.50;99.90;;;;;;5063089;28;20652;-77
2023/07/17 04:04:18;;;;;;;3.87;2.00;;;17.40;99.90;;;;;;5064959;28;20638;-78
2023/07/17 04:06:45;;;;;;;3.87;2.50;;;17.30;99.90;;;;;;5067395;28;20663;-78
2023/07/17 04:09:12;;;;;;;3.53;2.07;;;17.30;99.90;;;;;;5059801;28;20639;-78
2023/07/17 04:11:40;;;;;;;2.53;2.00;;;17.30;99.90;;;;;;5068074;28;20668;-78
2023/07/17 04:14:08;;;;;;;2.13;1.93;;;17.30;99.90;;;;;;5064042;28;20980;-78
2023/07/17 04:16:36;;;;;;;4.83;1.90;;;17.20;99.90;;;;;;5063367;28;20652;-78
2023/07/17 04:19:03;;;;;;;9.37;2.20;;;17.20;99.90;;;;;;5062638;28;20954;-78
2023/07/17 04:21:30;;;;;;;4.30;1.90;;;17.30;99.90;;;;;;5066728;28;20711;-78
2023/07/17 04:23:57;;;;;;;3.40;3.00;;;17.10;99.90;;;;;;5067368;28;20629;-78
2023/07/17 04:26:23;;;;;;;3.13;2.30;;;17.10;99.90;;;;;;5064986;28;21216;-78
2023/07/17 04:28:50;;;;;;;2.10;2.00;;;17.20;99.90;;;;;;5059698;28;21204;-78
2023/07/17 04:31:17;;;;;;;3.00;1.90;;;17.20;99.90;;;;;;5061546;28;20674;-78
2023/07/17 04:33:45;;;;;;;2.53;2.33;;;17.30;99.90;;;;;;5064492;28;20634;-78
2023/07/17 04:36:12;;;;;;;3.03;2.80;;;17.40;99.90;;;;;;5065934;28;21234;-77
2023/07/17 04:38:39;;;;;;;2.53;2.27;;;17.50;99.90;;;;;;5058392;28;20638;-76
2023/07/17 04:41:06;;;;;;;3.97;2.70;;;17.50;99.90;;;;;;5060715;28;20651;-77
2023/07/17 04:43:33;;;;;;;2.50;2.30;;;17.60;99.90;;;;;;5057255;28;20983;-77
2023/07/17 04:45:59;;;;;;;2.03;1.90;;;17.60;99.90;;;;;;5059080;28;20658;-77
2023/07/17 04:48:26;;;;;;;3.50;2.30;;;17.70;99.90;;;;;;5060846;28;20637;-77
2023/07/17 04:50:54;;;;;;;3.30;2.60;;;17.70;99.90;;;;;;5066198;28;20677;-77
2023/07/17 04:53:21;;;;;;;2.20;2.00;;;17.60;99.90;;;;;;5059147;28;21214;-77
2023/07/17 04:55:49;;;;;;;2.60;2.00;;;17.70;99.90;;;;;;5065660;28;20646;-77
2023/07/17 04:58:16;;;;;;;2.20;2.00;;;17.80;99.90;;;;;;5058206;28;20622;-77
2023/07/17 05:00:45;;;;;;;2.90;1.90;;;17.80;99.90;;;;;;5062774;28;20657;-76
2023/07/17 05:03:12;;;;;;;2.50;2.30;;;17.80;99.90;;;;;;5064854;28;21023;-75
2023/07/17 05:05:39;;;;;;;10.90;2.60;;;17.80;99.90;;;;;;5064002;28;20649;-75
2023/07/17 05:08:07;;;;;;;2.83;2.50;;;17.90;99.90;;;;;;5064008;28;20683;-75
2023/07/17 05:10:34;;;;;;;2.57;2.37;;;18.00;99.90;;;;;;5057800;28;20669;-75
2023/07/17 05:13:01;;;;;;;5.33;3.47;;;18.40;99.90;;;;;;5062241;28;20618;-74
2023/07/17 05:15:28;;;;;;;2.30;2.10;;;18.60;99.90;;;;;;5065567;28;20656;-74
2023/07/17 05:17:55;;;;;;;2.37;2.17;;;18.70;99.90;;;;;;5062380;28;20614;-74
2023/07/17 05:20:21;;;;;;;3.27;2.10;;;18.70;99.90;;;;;;5062396;28;20627;-74
2023/07/17 05:22:48;;;;;;;2.87;2.17;;;18.80;99.90;;;;;;5061534;28;20634;-73
2023/07/17 05:25:16;;;;;;;3.43;2.60;;;18.80;99.90;;;;;;5069318;28;20629;-74
2023/07/17 05:27:43;;;;;;;3.53;2.80;;;18.90;99.90;;;;;;5067795;28;20636;-74
2023/07/17 05:30:11;;;;;;;3.93;3.10;;;18.90;99.90;;;;;;5068045;28;20627;-74
2023/07/17 05:32:38;;;;;;;5.00;3.50;;;18.80;99.90;;;;;;5052911;28;20659;-74
2023/07/17 05:35:05;;;;;;;4.73;3.33;;;18.90;99.90;;;;;;5060336;28;20633;-73
2023/07/17 05:37:33;;;;;;;5.57;3.77;;;18.80;99.90;;;;;;5068475;28;20648;-72
2023/07/17 05:40:00;;;;;;;4.93;3.73;;;18.80;99.90;;;;;;5062369;28;20963;-73
2023/07/17 05:42:28;;;;;;;6.20;4.30;;;18.90;99.90;;;;;;5063797;28;20649;-72
2023/07/17 05:44:54;;;;;;;3.67;3.37;;;18.90;99.90;;;;;;5067910;28;20720;-73
2023/07/17 05:47:21;;;;;;;3.60;3.30;;;18.90;99.90;;;;;;5069882;28;20719;-72
2023/07/17 05:49:48;;;;;;;3.13;2.67;;;19.00;99.90;;;;;;5059037;28;20621;-72
2023/07/17 05:52:15;;;;;;;5.00;3.10;;;19.00;99.90;;;;;;5061099;28;20676;-73
2023/07/17 05:54:41;;;;;;;3.97;2.97;;;19.00;99.40;;;;;;5066043;28;20625;-73
2023/07/17 05:57:08;;;;;;;4.83;2.40;;;19.00;99.60;;;;;;5068977;28;20680;-74
2023/07/17 05:59:36;;;;;;;2.40;2.20;;;19.00;99.80;;;;;;5068650;28;20632;-74
2023/07/17 06:02:03;;;;;;;3.27;1.90;;;18.90;99.90;;;;;;5068987;28;20653;-74
2023/07/17 06:04:30;;;;;;;3.03;2.30;;;19.00;99.90;;;;;;5069073;28;20628;-74
2023/07/17 06:06:57;;;;;;;2.93;2.30;;;19.20;99.90;;;;;;5066877;28;20808;-74
2023/07/17 06:09:24;;;;;;;3.03;2.17;;;19.30;98.90;;;;;;5069188;28;20725;-73
2023/07/17 06:11:51;;;;;;;2.50;2.20;;;19.30;98.30;;;;;;5068723;28;21026;-73
2023/07/17 06:14:18;;;;;;;4.17;2.47;;;19.50;97.90;;;;;;5067923;28;21061;-74
2023/07/17 06:16:46;;;;;;;4.27;3.10;;;19.60;97.90;;;;;;5068508;28;20660;-74
2023/07/17 06:19:13;;;;;;;3.67;2.30;;;19.60;97.60;;;;;;5062493;28;20941;-74
2023/07/17 06:21:40;;;;;;;3.90;2.40;;;19.60;98.20;;;;;;5063187;28;20653;-74
2023/07/17 06:24:07;;;;;;;5.17;2.20;;;19.80;97.60;;;;;;5069263;28;21185;-74
2023/07/17 06:26:34;;;;;;;4.73;2.40;;;19.80;97.30;;;;;;5064896;28;20657;-74
2023/07/17 06:29:01;;;;;;;2.73;2.17;;;19.90;97.20;;;;;;5062894;28;20628;-74
2023/07/17 06:31:28;;;;;;;4.27;2.00;;;20.00;96.90;;;;;;5068458;28;20671;-74
2023/07/17 06:33:59;;;;;;;2.37;2.17;;;20.10;96.30;;;;;;5064775;28;21188;-74
2023/07/17 06:36:25;;;;;;;3.10;2.80;;;20.30;96.30;;;;;;5067402;28;20649;-74
2023/07/17 06:38:52;;;;;;;5.30;2.50;;;20.30;95.90;;;;;;5067982;28;20629;-74
2023/07/17 06:41:19;;;;;;;2.90;2.30;;;20.30;95.30;;;;;;5067637;28;20652;-74
2023/07/17 06:43:46;;;;;;;5.63;2.20;;;20.30;95.80;;;;;;5058737;28;20626;-74
2023/07/17 06:46:13;;;;;;;2.00;1.60;;;20.40;95.80;;;;;;5068983;28;20661;-74
2023/07/17 06:48:41;;;;;;;2.60;2.40;;;20.60;95.00;;;;;;5065635;28;20687;-74
2023/07/17 06:51:09;;;;;;;3.60;2.70;;;20.60;94.70;;;;;;5067977;28;20665;-74
2023/07/17 06:53:35;;;;;;;2.00;1.90;;;20.70;93.70;;;;;;5062542;28;20622;-74
2023/07/17 06:56:03;;;;;;;2.70;2.37;;;20.70;94.10;;;;;;5059735;28;20665;-74
2023/07/17 06:58:29;;;;;;;1.97;1.80;;;20.60;93.10;;;;;;5063229;28;20629;-74
2023/07/17 07:00:57;;;;;;;4.20;2.77;;;20.80;92.70;;;;;;5059234;28;20661;-74
2023/07/17 07:03:27;;;;;;;5.70;2.67;;;20.90;92.20;;;;;;5060175;28;20623;-74
2023/07/17 07:05:55;;;;;;;5.90;2.10;;;20.90;91.30;;;;;;5058807;28;21470;-73
2023/07/17 07:08:23;;;;;;;3.83;3.33;;;20.90;91.50;;;;;;5056400;28;20679;-73
2023/07/17 07:10:52;;;;;;;2.27;1.90;;;21.10;91.50;;;;;;5053203;28;21009;-73
2023/07/17 07:13:18;;;;;;;3.10;2.80;;;21.00;90.90;;;;;;5061983;28;20629;-74
2023/07/17 07:15:45;;;;;;;4.27;2.33;;;21.20;91.10;;;;;;5059865;28;20755;-73
2023/07/17 07:18:12;;;;;;;2.57;2.27;;;21.20;91.30;;;;;;5061469;28;20622;-73
2023/07/17 07:20:41;;;;;;;3.43;2.50;;;21.30;91.50;;;;;;5062230;28;20746;-75
2023/07/17 07:23:08;;;;;;;6.13;2.70;;;21.50;91.10;;;;;;5059064;28;20627;-74
2023/07/17 07:25:36;;;;;;;4.10;2.30;;;21.40;89.20;;;;;;5057251;28;20697;-75
2023/07/17 07:28:03;;;;;;;5.33;2.87;;;21.60;89.00;;;;;;5060864;28;21158;-74
2023/07/17 07:30:32;;;;;;;3.40;2.80;;;21.60;85.20;;;;;;5057722;28;20681;-73
2023/07/17 07:32:59;;;;;;;6.87;2.90;;;21.70;87.00;;;;;;5063399;28;20658;-74
2023/07/17 07:35:26;;;;;;;3.53;2.27;;;21.70;86.70;;;;;;5065752;28;20643;-75
2023/07/17 07:37:53;;;;;;;2.40;2.30;;;21.80;87.20;;;;;;5063324;28;20628;-75
2023/07/17 07:40:20;;;;;;;3.33;2.70;;;21.80;84.20;;;;;;5060050;28;20632;-73
2023/07/17 07:42:49;;;;;;;12.73;2.77;;;21.90;85.50;;;;;;5061824;28;20670;-73
2023/07/17 07:45:18;;;;;;;9.63;3.13;;;22.00;80.60;;;;;;5060782;28;20670;-74
2023/07/17 07:47:44;;;;;;;7.47;3.40;;;22.10;80.10;;;;;;5060080;28;20637;-74
2023/07/17 07:50:11;;;;;;;9.00;3.23;;;22.10;78.60;;;;;;5061955;28;20634;-73
2023/07/17 07:52:38;;;;;;;3.17;2.73;;;22.20;80.80;;;;;;5061334;28;20659;-73
2023/07/17 07:55:06;;;;;;;5.93;2.77;;;22.30;81.10;;;;;;5068095;28;21090;-73
2023/07/17 07:57:33;;;;;;;3.40;3.10;;;22.40;82.00;;;;;;5067953;28;21218;-73
2023/07/17 08:00:02;;;;;;;3.30;3.00;;;22.30;76.90;;;;;;5066368;28;20631;-73
2023/07/17 08:02:28;;;;;;;4.90;3.17;;;22.40;76.60;;;;;;5065950;28;20665;-73
2023/07/17 08:04:55;;;;;;;3.53;3.23;;;22.50;76.20;;;;;;5064433;28;20638;-73
2023/07/17 08:07:22;;;;;;;4.40;3.67;;;22.70;76.30;;;;;;5066490;28;20665;-74
2023/07/17 08:09:49;;;;;;;4.77;2.97;;;22.80;74.20;;;;;;5062598;28;20637;-73
2023/07/17 08:12:16;;;;;;;4.03;3.03;;;22.90;76.70;;;;;;5067345;28;20664;-75
2023/07/17 08:14:43;;;;;;;3.77;3.47;;;23.00;76.00;;;;;;5067720;28;20728;-73
2023/07/17 08:17:11;;;;;;;4.03;3.20;;;23.00;75.30;;;;;;5066556;28;20660;-74
2023/07/17 08:19:38;;;;;;;5.10;3.27;;;23.10;73.60;;;;;;5067093;28;20618;-73
2023/07/17 08:22:05;;;;;;;4.03;3.63;;;23.20;72.50;;;;;;5065722;28;20671;-73
2023/07/17 08:24:34;;;;;;;3.00;2.70;;;23.20;71.20;;;;;;5066952;28;20629;-76
2023/07/17 08:27:01;;;;;;;6.33;3.30;;;23.20;70.30;;;;;;5065329;28;20658;-74
2023/07/17 08:29:28;;;;;;;6.20;3.40;;;23.30;66.50;;;;;;5062808;28;20982;-74
2023/07/17 08:31:55;;;;;;;5.70;2.80;;;23.60;68.70;;;;;;5067020;28;20668;-75
2023/07/17 08:34:24;;;;;;;4.37;3.07;;;23.90;65.80;;;;;;5056660;28;20730;-75
2023/07/17 08:36:51;;;;;;;3.90;3.27;;;24.20;65.60;;;;;;5056202;28;20651;-73
2023/07/17 08:39:18;;;;;;;5.40;3.30;;;24.30;63.40;;;;;;5064734;28;21077;-74
2023/07/17 08:41:46;;;;;;;3.67;3.30;;;24.40;63.40;;;;;;5065615;28;20659;-73
2023/07/17 08:44:16;;;;;;;2.77;2.33;;;24.30;63.50;;;;;;5063628;28;21005;-73
2023/07/17 08:46:43;;;;;;;4.40;3.47;;;24.20;61.90;;;;;;5058475;28;20651;-74
2023/07/17 08:49:11;;;;;;;3.17;2.87;;;24.20;60.00;;;;;;5061668;28;20627;-73
2023/07/17 08:51:40;;;;;;;3.97;2.90;;;24.30;62.60;;;;;;5056625;28;21054;-74
2023/07/17 08:54:07;;;;;;;3.57;2.97;;;24.30;60.30;;;;;;5063112;28;20630;-74
2023/07/17 08:56:35;;;;;;;7.87;3.20;;;24.40;62.10;;;;;;5064671;28;20649;-74
2023/07/17 08:59:03;;;;;;;4.33;2.97;;;24.60;62.00;;;;;;5067631;28;20641;-73
2023/07/17 09:01:30;;;;;;;2.97;2.63;;;24.70;59.40;;;;;;5071223;28;20651;-73
2023/07/17 09:03:57;;;;;;;3.50;2.70;;;24.80;61.40;;;;;;5070032;28;20616;-73
2023/07/17 09:06:25;;;;;;;4.67;3.40;;;24.70;57.70;;;;;;5069358;28;20650;-74
2023/07/17 09:08:53;;;;;;;2.80;2.57;;;24.70;59.50;;;;;;5070128;28;20639;-73
2023/07/17 09:11:20;;;;;;;5.20;3.07;;;24.70;59.20;;;;;;5070649;28;20659;-73
2023/07/17 09:13:49;;;;;;;5.70;3.30;;;25.00;60.30;;;;;;5071290;28;20762;-74
2023/07/17 09:16:18;;;;;;;3.03;2.83;;;25.30;59.80;;;;;;5069012;28;21242;-73
2023/07/17 09:18:46;;;;;;;3.63;3.20;;;25.50;59.60;;;;;;5071045;28;20723;-73
2023/07/17 09:21:14;;;;;;;3.67;2.97;;;25.30;59.50;;;;;;5070904;28;20674;-73
2023/07/17 09:23:43;;;;;;;5.90;3.37;;;25.20;58.50;;;;;;5070938;28;20618;-73
2023/07/17 09:26:14;;;;;;;3.83;3.23;;;24.90;58.70;;;;;;5070716;28;20663;-73
2023/07/17 09:28:46;;;;;;;4.63;2.90;;;24.90;58.10;;;;;;5070892;28;21017;-73
2023/07/17 09:31:13;;;;;;;7.40;2.70;;;24.80;57.60;;;;;;5070901;28;20646;-73
2023/07/17 09:33:41;;;;;;;4.17;3.63;;;24.70;57.90;;;;;;5070647;28;20658;-73
2023/07/17 09:36:10;;;;;;;4.17;2.97;;;24.80;58.70;;;;;;5069825;28;20654;-73
2023/07/17 09:38:37;;;;;;;2.20;2.00;;;24.90;58.10;;;;;;5070881;28;20632;-73
2023/07/17 09:41:19;;;;;;;3.30;3.00;;;25.00;58.40;;;;;;5070446;28;20648;-73
2023/07/17 09:43:53;;;;;;;3.93;3.17;;;25.20;58.00;;;;;;5071123;28;21255;-73
2023/07/17 09:46:20;;;;;;;2.70;2.50;;;25.50;57.10;;;;;;5069871;28;20652;-74
2023/07/17 09:48:47;;;;;;;3.03;2.67;;;25.60;57.50;;;;;;5066416;28;20635;-73
2023/07/17 09:51:14;;;;;;;4.37;2.30;;;25.60;57.00;;;;;;5070430;28;21005;-73
2023/07/17 09:53:44;;;;;;;3.33;3.03;;;25.60;56.70;;;;;;5070554;28;21233;-74
2023/07/17 09:56:13;;;;;;;4.80;2.87;;;25.50;57.10;;;;;;5069924;28;20645;-74
2023/07/17 09:58:46;;;;;;;4.13;2.90;;;25.40;57.60;;;;;;5062657;28;20642;-73
2023/07/17 10:01:16;;;;;;;3.00;2.70;;;25.30;58.00;;;;;;5068555;28;20646;-74
2023/07/17 10:03:46;;;;;;;3.93;3.53;;;25.20;57.90;;;;;;5070732;28;20628;-74
2023/07/17 10:06:14;;;;;;;5.30;2.60;;;25.00;56.20;;;;;;5069772;28;20784;-74
2023/07/17 10:08:43;;;;;;;3.37;2.87;;;24.60;55.10;;;;;;5067560;28;20645;-74
2023/07/17 10:11:10;;;;;;;3.47;3.17;;;24.60;57.70;;;;;;5070072;28;20740;-74
2023/07/17 10:13:37;;;;;;;3.67;2.80;;;24.60;56.20;;;;;;5070015;28;21208;-74
2023/07/17 10:16:06;;;;;;;5.93;2.80;;;24.90;57.30;;;;;;5069447;28;20647;-74
2023/07/17 10:18:33;;;;;;;5.33;2.73;;;24.80;55.30;;;;;;5067776;28;20641;-74
2023/07/17 10:21:04;;;;;;;3.50;3.17;;;24.80;58.30;;;;;;5069390;28;20754;-74
2023/07/17 10:23:31;;;;;;;4.27;2.97;;;24.80;57.40;;;;;;5070092;28;20624;-74
2023/07/17 10:26:07;;;;;;;5.67;3.90;;;25.00;57.10;;;;;;5070077;28;20648;-74
2023/07/17 10:28:35;;;;;;;7.37;3.00;;;25.20;56.80;;;;;;5068488;28;20684;-74
2023/07/17 10:31:08;;;;;;;4.20;3.00;;;25.30;56.50;;;;;;5063968;28;20660;-74
2023/07/17 10:33:37;;;;;;;3.70;3.27;;;25.50;55.90;;;;;;5067715;28;20658;-74
2023/07/17 10:36:04;;;;;;;5.50;2.63;;;25.50;56.20;;;;;;5069118;28;20649;-74
2023/07/17 10:38:36;;;;;;;4.03;2.53;;;25.70;57.10;;;;;;5069700;28;20629;-74
2023/07/17 10:41:04;;;;;;;3.13;2.50;;;26.10;54.90;;;;;;5060915;28;20655;-74
2023/07/17 10:43:32;;;;;;;4.30;3.23;;;26.10;56.80;;;;;;5070036;28;21163;-74
2023/07/17 10:45:59;;;;;;;5.53;3.07;;;26.20;55.10;;;;;;5069315;28;20655;-74
2023/07/17 10:48:31;;;;;;;3.80;3.30;;;26.10;55.40;;;;;;5068696;28;20734;-74
2023/07/17 10:50:58;;;;;;;9.17;3.63;;;26.30;56.70;;;;;;5068834;28;20644;-74
2023/07/17 10:53:25;;;;;;;4.43;2.60;;;26.80;56.40;;;;;;5069369;28;20643;-74
2023/07/17 10:55:52;;;;;;;2.83;2.63;;;27.20;55.10;;;;;;5069617;28;20647;-74
2023/07/17 10:58:20;;;;;;;3.63;3.27;;;27.50;53.50;;;;;;5068731;28;20633;-74
2023/07/17 11:00:47;;;;;;;3.47;3.07;;;27.50;55.00;;;;;;5068593;28;20637;-74
2023/07/17 11:03:15;;;;;;;3.57;2.90;;;27.70;54.60;;;;;;5069219;28;20719;-74
2023/07/17 11:05:45;;;;;;;2.87;2.67;;;27.80;55.70;;;;;;5069058;28;21006;-74
2023/07/17 11:08:13;;;;;;;4.23;3.10;;;28.10;56.70;;;;;;5068259;28;20791;-74
2023/07/17 11:10:41;;;;;;;3.07;2.77;;;28.50;53.80;;;;;;5068569;28;20644;-74
2023/07/17 11:13:09;;;;;;;4.23;3.13;;;28.70;53.20;;;;;;5069188;28;20650;-74
2023/07/17 11:15:37;;;;;;;3.70;2.80;;;28.30;51.30;;;;;;5068916;28;20657;-74
2023/07/17 11:18:06;;;;;;;2.77;2.57;;;27.80;51.20;;;;;;5068827;28;21054;-74
2023/07/17 11:20:33;;;;;;;2.83;2.60;;;27.30;51.50;;;;;;5067235;28;20638;-74
2023/07/17 11:23:03;;;;;;;3.67;3.33;;;27.30;53.40;;;;;;5068820;28;20618;-74
2023/07/17 11:25:31;;;;;;;3.23;2.53;;;27.00;53.20;;;;;;5068798;28;20674;-74
2023/07/17 11:28:01;;;;;;;4.53;2.93;;;26.90;53.10;;;;;;5068022;28;20642;-74
2023/07/17 11:30:29;;;;;;;3.37;3.07;;;26.80;53.00;;;;;;5058889;28;20645;-74
2023/07/17 11:33:05;;;;;;;4.40;3.20;;;26.60;52.70;;;;;;5060899;28;21260;-74
2023/07/17 11:35:39;;;;;;;4.30;3.07;;;26.30;54.40;;;;;;5068776;28;20641;-74
2023/07/17 11:38:08;;;;;;;3.13;2.93;;;26.20;54.00;;;;;;5056630;28;20642;-73
2023/07/17 11:40:50;;;;;;;5.77;3.23;;;26.40;55.90;;;;;;5067401;28;20776;-74
2023/07/17 11:43:24;;;;;;;4.27;3.90;;;27.20;54.50;;;;;;5061999;28;20628;-74
2023/07/17 11:45:51;;;;;;;2.67;2.47;;;27.80;54.70;;;;;;5068674;28;21119;-74
2023/07/17 11:48:19;;;;;;;3.87;2.20;;;28.30;52.60;;;;;;5067635;28;21193;-74
2023/07/17 11:50:45;;;;;;;3.77;2.83;;;28.50;51.00;;;;;;5064761;28;20645;-74
2023/07/17 11:53:16;;;;;;;6.87;3.03;;;28.50;53.30;;;;;;5067953;28;20740;-74
2023/07/17 11:55:44;;;;;;;3.03;2.73;;;28.50;53.90;;;;;;5068048;28;20753;-74
2023/07/17 11:58:15;;;;;;;2.90;2.33;;;28.60;51.90;;;;;;5067745;28;20637;-74
2023/07/17 12:00:42;;;;;;;3.30;3.00;;;28.60;52.50;;;;;;5064234;28;20660;-74
2023/07/17 12:03:09;;;;;;;3.43;3.03;;;28.80;52.90;;;;;;5067917;28;20617;-74
2023/07/17 12:05:36;;;;;;;6.83;3.30;;;29.10;52.40;;;;;;5068512;28;20736;-73
2023/07/17 12:08:03;;;;;;;4.90;3.70;;;29.60;51.30;;;;;;5067254;28;20663;-73
2023/07/17 12:10:32;;;;;;;3.70;3.10;;;28.90;49.30;;;;;;5067453;28;20652;-74
2023/07/17 12:12:59;;;;;;;2.77;2.40;;;28.80;52.30;;;;;;5067961;28;21261;-74
2023/07/17 12:15:27;;;;;;;3.43;2.90;;;29.40;53.20;;;;;;5067357;28;20754;-74
2023/07/17 12:17:54;;;;;;;5.30;3.70;;;29.90;52.10;;;;;;5067345;28;20621;-74
2023/07/17 12:20:22;;;;;;;4.07;3.30;;;31.10;51.30;;;;;;5067404;28;20625;-74
2023/07/17 12:22:50;;;;;;;4.23;3.57;;;32.20;49.50;;;;;;5067322;28;21185;-74
2023/07/17 12:25:17;;;;;;;3.70;3.07;;;31.90;47.10;;;;;;5067276;28;20629;-74
2023/07/17 12:27:47;;;;;;;3.37;3.07;;;32.30;47.60;;;;;;5059585;28;20625;-74
2023/07/17 12:30:16;;;;;;;3.40;3.10;;;31.90;47.10;;;;;;5067365;28;20628;-74
2023/07/17 12:32:43;;;;;;;2.90;2.60;;;32.60;47.70;;;;;;5060446;28;20634;-74
2023/07/17 12:35:10;;;;;;;3.20;3.00;;;31.70;45.10;;;;;;5059054;28;20732;-74
2023/07/17 12:37:37;;;;;;;3.03;2.73;;;30.90;47.80;;;;;;5060686;28;20696;-74
2023/07/17 12:40:05;;;;;;;3.23;2.93;;;31.80;50.70;;;;;;5054651;28;20630;-74
2023/07/17 12:42:32;;;;;;;2.73;2.30;;;32.70;46.30;;;;;;5057310;28;20629;-74
2023/07/17 12:45:00;;;;;;;4.23;3.83;;;33.10;46.00;;;;;;5064815;28;20623;-74
2023/07/17 12:47:27;;;;;;;4.20;3.57;;;32.90;45.80;;;;;;5066161;28;20652;-75
2023/07/17 12:49:54;;;;;;;4.33;3.40;;;33.40;47.00;;;;;;5061779;28;20620;-74